Louis Armstrong New Orleans International Airport
KMSY : now visible

Airfield :











YOU CAN JOIN US ON...

 
LOGIN :

Register | Disclaimer

   EN    FR    IT 

 









Legend :    VFR   Marginal VFR   IFR   Intensive IFR   Very Intensive IFR
Visi :
Ceiling :
>= 8 km
>= 3000ft
5 to 8 km
1000 to 3000 ft
1500m to 5 km
500 to 1000 ft
800 to 1500m
200 to 500 ft
< 800m
< 200 ft
Symbols :   Thunderstorms  Fog  Heavy snow  Heavy precipitations  Wind > 20 kt







- Airport Elevation : 4 ft
- IATA code : MSY


KMSY - Louis Armstrong New Orleans International

CURRENT METAR :
  • 201953Z 10010G21KT 10SM SCT050 BKN250 32/19 A3008 RMK AO2 PK WND 10026/1920 SLP188 CB DSNT NW T03170194

EXPIRED METARs :
  • 201853Z 08012G16KT 10SM SCT049 BKN250 33/19 A3009 RMK AO2 SLP191 CB DSNT NW T03280189
  • 201753Z 11015KT 10SM SCT046 SCT150 BKN250 32/19 A3010 RMK AO2 SLP196 T03220189 10328 20272 58002

TAF KMSY
Valid from the 20 at 18:00 until the 22 at 00:00 UTC


201733Z 2018/2124 10011KT P6SM VCTS SCT040CB BKN150 BKN250
FM210100 11007KT P6SM FEW035 FEW110
FM211500 10010G18KT P6SM SCT030 BKN045
FM211600 10011KT P6SM BKN030
FM211900 11012KT P6SM SCT035 BKN040
No reported NOTAMs for that airfield.



MET'MAP, your aeronautical weather chart ! - Copyright ORBIFLY December 2007 - Disclaimer

ORBIFLY MET'MAP TEAM :

Programming & Development : Alexandra Zaïnal
Concept & Development : Baudouin d'Aumeries
Co-Development & Prog : Marc-Olivier Méhu
Technical & hardware support : Manuel Goepfert

Contact : metmap@orbifly.com




SOURCES & CREDITS :

   NOAA       Earth
Advisory